Time;durP1;ratioP1;P1;durP2;ratioP2;P2;SDS_P1;SDS_P2;PMS_P1;PMS_P2;Temp;Humidity;BMP_temperature;BMP_pressure;BME280_temperature;BME280_humidity;BME280_pressure;Samples;Min_cycle;Max_cycle;Signal;HPM_P1;HPM_P2
2022/05/12 00:00:50;;;;;;;14.80;3.03;;;;;;;;;;5049546;28;20051;-63
2022/05/12 00:03:17;;;;;;;14.37;2.93;;;;;;;;;;5050548;28;20087;-63
2022/05/12 00:05:46;;;;;;;10.83;2.90;;;;;;;;;;5050249;28;20041;-63
2022/05/12 00:08:13;;;;;;;11.40;3.73;;;;;;;;;;5050125;28;20045;-63
2022/05/12 00:10:39;;;;;;;10.20;2.70;;;;;;;;;;5048153;28;20037;-63
2022/05/12 00:13:06;;;;;;;6.73;2.27;;;;;;;;;;5049974;28;20041;-63
2022/05/12 00:15:33;;;;;;;15.30;3.10;;;;;;;;;;5049958;28;20045;-63
2022/05/12 00:18:02;;;;;;;12.20;3.50;;;;;;;;;;5030093;28;20132;-63
2022/05/12 00:20:29;;;;;;;11.47;2.20;;;;;;;;;;5028721;28;20064;-63
2022/05/12 00:23:07;;;;;;;9.87;2.77;;;;;;;;;;5046327;28;20071;-64
2022/05/12 00:25:33;;;;;;;16.57;2.57;;;;;;;;;;5037977;28;20061;-63
2022/05/12 00:27:59;;;;;;;9.50;3.00;;;;;;;;;;5049957;28;20080;-63
2022/05/12 00:30:25;;;;;;;8.53;2.43;;;;;;;;;;5049758;28;20525;-63
2022/05/12 00:32:52;;;;;;;10.73;2.40;;;;;;;;;;5049007;28;20392;-63
2022/05/12 00:35:19;;;;;;;7.50;2.20;;;;;;;;;;5049692;28;20141;-63
2022/05/12 00:37:45;;;;;;;5.87;2.20;;;;;;;;;;5049514;28;20053;-64
2022/05/12 00:40:12;;;;;;;8.70;2.47;;;;;;;;;;5048397;28;20049;-64
2022/05/12 00:42:51;;;;;;;7.10;2.40;;;;;;;;;;5049322;28;20091;-63
2022/05/12 00:45:17;;;;;;;7.90;2.50;;;;;;;;;;5049800;28;20049;-63
2022/05/12 00:47:43;;;;;;;10.87;2.50;;;;;;;;;;5049570;28;20102;-63
2022/05/12 00:50:10;;;;;;;8.27;2.20;;;;;;;;;;5048994;28;20041;-63
2022/05/12 00:52:36;;;;;;;7.23;2.67;;;;;;;;;;5049913;28;20052;-63
2022/05/12 00:55:05;;;;;;;7.03;2.47;;;;;;;;;;5046209;28;20033;-64
2022/05/12 00:57:32;;;;;;;8.90;3.10;;;;;;;;;;5048079;28;20442;-63
2022/05/12 00:59:59;;;;;;;12.87;2.70;;;;;;;;;;5048961;28;20446;-63
2022/05/12 01:02:26;;;;;;;11.37;2.50;;;;;;;;;;5049245;28;20041;-63
2022/05/12 01:04:55;;;;;;;8.53;2.90;;;;;;;;;;5049395;28;20045;-63
2022/05/12 01:07:21;;;;;;;5.87;2.70;;;;;;;;;;5047053;28;20041;-63
2022/05/12 01:09:47;;;;;;;7.93;2.27;;;;;;;;;;5043681;28;20041;-63
2022/05/12 01:12:13;;;;;;;9.10;2.37;;;;;;;;;;5029170;28;20064;-64
2022/05/12 01:14:40;;;;;;;8.80;2.33;;;;;;;;;;5029206;28;20499;-63
2022/05/12 01:17:06;;;;;;;10.83;3.57;;;;;;;;;;5028689;28;20537;-63
2022/05/12 01:19:34;;;;;;;16.77;3.60;;;;;;;;;;5028693;28;20583;-64
2022/05/12 01:22:01;;;;;;;9.53;2.73;;;;;;;;;;5044572;28;20041;-63
2022/05/12 01:24:35;;;;;;;4.73;2.40;;;;;;;;;;5033198;28;20099;-63
2022/05/12 01:27:19;;;;;;;4.47;2.50;;;;;;;;;;5029040;28;20144;-63
2022/05/12 01:29:48;;;;;;;5.88;2.53;;;;;;;;;;5028602;28;20069;-64
2022/05/12 01:32:14;;;;;;;9.63;3.63;;;;;;;;;;5027552;28;20465;-64
2022/05/12 01:34:41;;;;;;;7.73;2.60;;;;;;;;;;5035432;28;20052;-63
2022/05/12 01:37:07;;;;;;;9.63;3.57;;;;;;;;;;5048589;28;20210;-63
2022/05/12 01:39:35;;;;;;;10.57;2.90;;;;;;;;;;5029982;28;20045;-63
2022/05/12 01:42:01;;;;;;;5.23;2.57;;;;;;;;;;5028504;28;20052;-63
2022/05/12 01:44:27;;;;;;;3.73;2.10;;;;;;;;;;5028676;28;20526;-63
2022/05/12 01:46:54;;;;;;;8.20;2.80;;;;;;;;;;5038855;28;20478;-63
2022/05/12 01:49:20;;;;;;;9.83;2.80;;;;;;;;;;5048965;28;20041;-63
2022/05/12 01:51:46;;;;;;;8.63;2.93;;;;;;;;;;5041600;28;20050;-63
2022/05/12 01:54:12;;;;;;;6.43;2.63;;;;;;;;;;5043977;28;20041;-63
2022/05/12 01:56:39;;;;;;;8.50;3.67;;;;;;;;;;5048673;28;20387;-63
2022/05/12 01:59:05;;;;;;;13.70;4.27;;;;;;;;;;5048728;28;20055;-63
2022/05/12 02:01:31;;;;;;;10.93;3.63;;;;;;;;;;5030021;28;20053;-63
2022/05/12 02:03:57;;;;;;;8.70;2.90;;;;;;;;;;5030294;28;20041;-63
2022/05/12 02:06:23;;;;;;;15.07;3.37;;;;;;;;;;5048582;28;20910;-63
2022/05/12 02:08:49;;;;;;;6.50;3.00;;;;;;;;;;5047814;28;20067;-63
2022/05/12 02:11:15;;;;;;;11.60;3.60;;;;;;;;;;5048637;28;20498;-63
2022/05/12 02:13:41;;;;;;;13.77;4.17;;;;;;;;;;5047249;28;20045;-63
2022/05/12 02:16:07;;;;;;;7.67;2.70;;;;;;;;;;5048298;28;20380;-63
2022/05/12 02:18:33;;;;;;;10.23;3.10;;;;;;;;;;5048546;28;20392;-63
2022/05/12 02:20:59;;;;;;;9.03;3.13;;;;;;;;;;5049818;28;20045;-63
2022/05/12 02:23:25;;;;;;;8.57;3.30;;;;;;;;;;5050529;28;20083;-63
2022/05/12 02:25:51;;;;;;;8.77;3.47;;;;;;;;;;5052198;28;20073;-63
2022/05/12 02:28:17;;;;;;;10.83;3.67;;;;;;;;;;5052083;28;20124;-63
2022/05/12 02:30:43;;;;;;;8.07;3.40;;;;;;;;;;5051401;28;21128;-63
2022/05/12 02:33:09;;;;;;;13.23;4.37;;;;;;;;;;5049277;28;20053;-63
2022/05/12 02:35:36;;;;;;;14.50;5.20;;;;;;;;;;5052333;28;20564;-63
2022/05/12 02:38:02;;;;;;;12.77;4.03;;;;;;;;;;5051485;28;20585;-63
2022/05/12 02:40:28;;;;;;;14.20;4.30;;;;;;;;;;5049862;28;20479;-63
2022/05/12 02:42:55;;;;;;;12.80;4.20;;;;;;;;;;5032534;28;20055;-63
2022/05/12 02:45:22;;;;;;;10.37;3.57;;;;;;;;;;5032269;28;20571;-63
2022/05/12 02:47:48;;;;;;;9.70;4.17;;;;;;;;;;5066668;28;20421;-64
2022/05/12 02:50:15;;;;;;;15.20;4.43;;;;;;;;;;5051543;28;20041;-63
2022/05/12 02:52:41;;;;;;;10.37;4.33;;;;;;;;;;5051471;28;20049;-63
2022/05/12 02:55:07;;;;;;;17.60;5.10;;;;;;;;;;5036428;28;20048;-63
2022/05/12 02:57:33;;;;;;;16.03;4.13;;;;;;;;;;5031631;28;20446;-63
2022/05/12 02:59:59;;;;;;;11.50;4.17;;;;;;;;;;5031707;28;20579;-63
2022/05/12 03:02:25;;;;;;;18.77;4.80;;;;;;;;;;5031257;28;20033;-63
2022/05/12 03:04:51;;;;;;;13.47;4.93;;;;;;;;;;5031662;28;20096;-63
2022/05/12 03:07:17;;;;;;;13.87;4.87;;;;;;;;;;5031315;28;20048;-63
2022/05/12 03:09:44;;;;;;;16.67;4.50;;;;;;;;;;5045382;28;20048;-63
2022/05/12 03:12:10;;;;;;;21.30;5.70;;;;;;;;;;5051211;28;20392;-63
2022/05/12 03:14:36;;;;;;;20.07;4.53;;;;;;;;;;5051383;28;20048;-63
2022/05/12 03:17:02;;;;;;;20.53;5.47;;;;;;;;;;5051418;28;20041;-63
2022/05/12 03:19:29;;;;;;;23.23;5.50;;;;;;;;;;5050139;28;20080;-63
2022/05/12 03:21:55;;;;;;;21.87;5.47;;;;;;;;;;5049464;28;20045;-63
2022/05/12 03:24:21;;;;;;;15.03;5.63;;;;;;;;;;5050735;28;20115;-63
2022/05/12 03:26:48;;;;;;;24.03;6.03;;;;;;;;;;5050243;28;20370;-64
2022/05/12 03:29:14;;;;;;;16.57;5.70;;;;;;;;;;5051121;28;20102;-63
2022/05/12 03:31:40;;;;;;;18.80;6.27;;;;;;;;;;5050819;28;20067;-64
2022/05/12 03:34:06;;;;;;;18.60;7.57;;;;;;;;;;5050828;28;20131;-63
2022/05/12 03:36:35;;;;;;;23.73;6.90;;;;;;;;;;5050528;28;20048;-63
2022/05/12 03:39:02;;;;;;;24.57;7.47;;;;;;;;;;5036786;28;20057;-63
2022/05/12 03:41:28;;;;;;;23.70;7.07;;;;;;;;;;5030810;28;20076;-63
2022/05/12 03:46:39;;;;;;;15.27;6.67;;;;;;;;;;5030400;28;20049;-64
2022/05/12 03:49:05;;;;;;;18.10;6.17;;;;;;;;;;5030878;28;20052;-63
2022/05/12 03:51:31;;;;;;;27.43;8.40;;;;;;;;;;5030387;28;20049;-63
2022/05/12 03:53:57;;;;;;;19.40;7.50;;;;;;;;;;5030773;28;20084;-63
2022/05/12 03:56:23;;;;;;;24.70;7.80;;;;;;;;;;5030503;28;20053;-63
2022/05/12 03:58:49;;;;;;;19.47;7.53;;;;;;;;;;5031522;28;20041;-63
2022/05/12 04:01:15;;;;;;;26.50;7.73;;;;;;;;;;5029862;28;20077;-63
2022/05/12 04:03:41;;;;;;;24.67;8.83;;;;;;;;;;5030348;28;20503;-64
2022/05/12 04:06:07;;;;;;;24.03;8.27;;;;;;;;;;5032560;28;20037;-64
2022/05/12 04:08:34;;;;;;;28.97;8.47;;;;;;;;;;5036234;28;20047;-63
2022/05/12 04:11:00;;;;;;;30.73;9.20;;;;;;;;;;5036590;28;20052;-63
2022/05/12 04:13:27;;;;;;;33.27;9.70;;;;;;;;;;5037735;28;20729;-63
2022/05/12 04:15:53;;;;;;;36.70;10.77;;;;;;;;;;5038949;28;20041;-63
2022/05/12 04:18:19;;;;;;;22.10;10.03;;;;;;;;;;5040167;28;20068;-63
2022/05/12 04:20:45;;;;;;;31.73;11.50;;;;;;;;;;5036189;28;20518;-63
2022/05/12 04:23:12;;;;;;;35.23;13.00;;;;;;;;;;5039043;28;20118;-63
2022/05/12 04:25:38;;;;;;;36.17;11.80;;;;;;;;;;5039795;28;20041;-63
2022/05/12 04:28:05;;;;;;;29.50;12.43;;;;;;;;;;5037253;28;20025;-63
2022/05/12 04:30:31;;;;;;;27.30;12.40;;;;;;;;;;5042456;28;20507;-63
2022/05/12 04:35:11;;;;;;;37.23;13.50;;;;;;;;;;5036713;28;20055;-63
2022/05/12 04:35:46;;;;;;;37.60;15.67;;;;;;;;;;5037709;28;20057;-63
2022/05/12 04:38:12;;;;;;;32.37;15.17;;;;;;;;;;5036740;28;20053;-63
2022/05/12 04:40:39;;;;;;;38.43;16.53;;;;;;;;;;5040229;28;20080;-63
2022/05/12 04:43:05;;;;;;;33.17;15.90;;;;;;;;;;5036854;28;20048;-63
2022/05/12 04:45:32;;;;;;;40.23;17.93;;;;;;;;;;5037815;28;20132;-63
2022/05/12 04:47:58;;;;;;;45.80;19.87;;;;;;;;;;5036533;28;20037;-63
2022/05/12 04:50:26;;;;;;;60.37;21.53;;;;;;;;;;5037220;28;20103;-63
2022/05/12 04:52:52;;;;;;;43.47;19.00;;;;;;;;;;5037831;28;20435;-63
2022/05/12 04:55:19;;;;;;;38.53;17.13;;;;;;;;;;5038832;28;20057;-63
2022/05/12 04:57:48;;;;;;;44.80;20.97;;;;;;;;;;5034111;28;20095;-64
2022/05/12 05:00:17;;;;;;;43.97;17.30;;;;;;;;;;5037495;28;20090;-63
2022/05/12 05:02:43;;;;;;;36.53;17.73;;;;;;;;;;5033686;28;20049;-63
2022/05/12 05:05:10;;;;;;;41.87;18.30;;;;;;;;;;5035498;28;20045;-63
2022/05/12 05:07:36;;;;;;;32.00;17.83;;;;;;;;;;5037755;28;20049;-63
2022/05/12 05:10:03;;;;;;;34.57;16.67;;;;;;;;;;5035658;28;20049;-63
2022/05/12 05:12:29;;;;;;;36.20;16.67;;;;;;;;;;5038338;28;20048;-63
2022/05/12 05:14:56;;;;;;;44.13;20.40;;;;;;;;;;5035547;28;20083;-63
2022/05/12 05:17:23;;;;;;;44.87;20.37;;;;;;;;;;5039892;28;20498;-63
2022/05/12 05:19:50;;;;;;;35.60;16.17;;;;;;;;;;5039582;28;20041;-63
2022/05/12 05:22:16;;;;;;;41.40;16.30;;;;;;;;;;5042606;28;20045;-63
2022/05/12 05:24:42;;;;;;;38.37;16.00;;;;;;;;;;5035134;28;20049;-63
2022/05/12 05:27:08;;;;;;;31.23;15.90;;;;;;;;;;5033367;28;20048;-63
2022/05/12 05:29:34;;;;;;;39.73;15.40;;;;;;;;;;5033261;28;20526;-63
2022/05/12 05:32:00;;;;;;;46.57;20.03;;;;;;;;;;5036129;28;20050;-63
2022/05/12 05:34:26;;;;;;;38.00;17.57;;;;;;;;;;5038557;28;20041;-64
2022/05/12 05:36:52;;;;;;;42.17;17.80;;;;;;;;;;5034968;28;20462;-63
2022/05/12 05:39:22;;;;;;;36.50;16.13;;;;;;;;;;5038335;28;20423;-63
2022/05/12 05:41:49;;;;;;;38.00;17.60;;;;;;;;;;5035632;28;20116;-63
2022/05/12 05:44:15;;;;;;;32.17;16.47;;;;;;;;;;5035498;28;20687;-63
2022/05/12 05:46:41;;;;;;;38.10;15.67;;;;;;;;;;5040721;28;20041;-63
2022/05/12 05:49:07;;;;;;;36.33;16.30;;;;;;;;;;5036730;28;20037;-63
2022/05/12 05:54:18;;;;;;;40.67;16.80;;;;;;;;;;5039368;28;20053;-63
2022/05/12 05:56:44;;;;;;;39.20;16.50;;;;;;;;;;5038636;28;20087;-63
2022/05/12 05:59:10;;;;;;;37.33;16.40;;;;;;;;;;5042346;28;20044;-63
2022/05/12 06:01:36;;;;;;;40.37;17.00;;;;;;;;;;5043049;28;20037;-63
2022/05/12 06:04:02;;;;;;;28.93;16.13;;;;;;;;;;5049584;28;20047;-63
2022/05/12 06:06:28;;;;;;;30.17;15.33;;;;;;;;;;5051434;28;20049;-63
2022/05/12 06:08:54;;;;;;;31.50;16.20;;;;;;;;;;5020512;28;20048;-63
2022/05/12 06:11:20;;;;;;;29.40;13.93;;;;;;;;;;5046763;28;20083;-63
2022/05/12 06:13:47;;;;;;;29.97;13.90;;;;;;;;;;5051479;28;20100;-63
2022/05/12 06:16:14;;;;;;;35.43;15.27;;;;;;;;;;5049511;28;20057;-63
2022/05/12 06:18:41;;;;;;;31.93;14.67;;;;;;;;;;5041255;28;20423;-63
2022/05/12 06:21:09;;;;;;;24.80;12.77;;;;;;;;;;5055065;28;20045;-64
2022/05/12 06:23:35;;;;;;;25.27;11.47;;;;;;;;;;5045558;28;20431;-64
2022/05/12 06:26:02;;;;;;;28.43;14.20;;;;;;;;;;5040947;28;20040;-64
2022/05/12 06:28:28;;;;;;;24.73;11.80;;;;;;;;;;5037299;28;20128;-64
2022/05/12 06:30:54;;;;;;;25.63;10.77;;;;;;;;;;5040911;28;20049;-64
2022/05/12 06:33:22;;;;;;;19.17;10.67;;;;;;;;;;5038044;28;20051;-63
2022/05/12 06:35:49;;;;;;;26.20;10.50;;;;;;;;;;5038982;28;20127;-64
2022/05/12 06:38:15;;;;;;;20.07;8.83;;;;;;;;;;5041000;28;20037;-63
2022/05/12 06:40:41;;;;;;;24.97;9.50;;;;;;;;;;5038845;28;20507;-64
2022/05/12 06:43:08;;;;;;;25.63;10.40;;;;;;;;;;5034357;28;20559;-64
2022/05/12 06:45:34;;;;;;;15.57;8.57;;;;;;;;;;5051847;28;20033;-64
2022/05/12 06:48:01;;;;;;;17.47;9.33;;;;;;;;;;5064468;28;20044;-63
2022/05/12 06:50:29;;;;;;;23.70;10.70;;;;;;;;;;5068700;28;20044;-63
2022/05/12 06:52:56;;;;;;;18.90;9.80;;;;;;;;;;5038529;28;20054;-64
2022/05/12 06:55:24;;;;;;;22.97;9.20;;;;;;;;;;5038990;28;20041;-64
2022/05/12 06:57:50;;;;;;;19.63;7.80;;;;;;;;;;5046345;28;20124;-64
2022/05/12 07:00:16;;;;;;;19.60;8.70;;;;;;;;;;5038388;28;20086;-64
2022/05/12 07:02:44;;;;;;;17.87;8.70;;;;;;;;;;5042032;28;20037;-64
2022/05/12 07:05:11;;;;;;;18.37;8.53;;;;;;;;;;5050772;28;20053;-64
2022/05/12 07:07:37;;;;;;;15.77;7.70;;;;;;;;;;5048664;28;20049;-64
2022/05/12 07:10:04;;;;;;;17.33;7.93;;;;;;;;;;5050445;28;20041;-64
2022/05/12 07:12:30;;;;;;;18.97;8.07;;;;;;;;;;5050782;28;20049;-64
2022/05/12 07:14:56;;;;;;;14.70;7.27;;;;;;;;;;5050130;28;20049;-64
2022/05/12 07:17:23;;;;;;;16.57;7.33;;;;;;;;;;5049803;28;20048;-64
2022/05/12 07:19:50;;;;;;;19.03;7.07;;;;;;;;;;5049603;28;20570;-64
2022/05/12 07:27:45;;;;;;;17.63;6.87;;;;;;;;;;5050185;28;20091;-64
2022/05/12 07:30:12;;;;;;;18.53;6.37;;;;;;;;;;5048027;28;20491;-64
2022/05/12 07:32:38;;;;;;;12.73;5.50;;;;;;;;;;5049825;28;20648;-64
2022/05/12 07:35:06;;;;;;;18.90;5.87;;;;;;;;;;5049537;28;20053;-64
2022/05/12 07:37:32;;;;;;;13.37;4.97;;;;;;;;;;5050170;28;20049;-64
2022/05/12 07:39:58;;;;;;;15.93;6.70;;;;;;;;;;5049698;28;20445;-64
2022/05/12 07:42:24;;;;;;;11.50;5.37;;;;;;;;;;5049562;28;20124;-63
2022/05/12 07:44:50;;;;;;;10.93;4.77;;;;;;;;;;5049342;28;20044;-64
2022/05/12 07:47:17;;;;;;;12.50;4.70;;;;;;;;;;5029970;28;20104;-64
2022/05/12 07:49:43;;;;;;;15.13;5.17;;;;;;;;;;5030231;28;20091;-64
2022/05/12 07:52:10;;;;;;;16.20;5.43;;;;;;;;;;5029925;28;20053;-64
2022/05/12 07:54:36;;;;;;;7.77;3.70;;;;;;;;;;5029562;28;20037;-63
2022/05/12 07:57:03;;;;;;;11.00;3.50;;;;;;;;;;5029853;28;20041;-64
2022/05/12 07:59:29;;;;;;;11.30;3.67;;;;;;;;;;5048748;28;20136;-63
2022/05/12 08:01:58;;;;;;;10.50;3.30;;;;;;;;;;5042425;28;20525;-63
2022/05/12 08:04:24;;;;;;;9.37;4.13;;;;;;;;;;5029713;28;20128;-64
2022/05/12 08:06:50;;;;;;;8.97;3.83;;;;;;;;;;5029701;28;20049;-63
2022/05/12 08:09:16;;;;;;;8.03;2.70;;;;;;;;;;5029598;28;20041;-63
2022/05/12 08:11:42;;;;;;;10.17;2.77;;;;;;;;;;5030141;28;20140;-63
2022/05/12 08:14:09;;;;;;;10.63;3.90;;;;;;;;;;5029598;28;20787;-63
2022/05/12 08:16:35;;;;;;;9.70;2.90;;;;;;;;;;5029107;28;20519;-63
2022/05/12 08:19:01;;;;;;;6.20;2.80;;;;;;;;;;5029215;28;20492;-63
2022/05/12 08:21:27;;;;;;;11.53;4.20;;;;;;;;;;5029228;28;20053;-63
2022/05/12 08:23:53;;;;;;;9.97;3.30;;;;;;;;;;5029254;28;20049;-62
2022/05/12 08:26:19;;;;;;;11.60;3.00;;;;;;;;;;5029177;28;20140;-63
2022/05/12 08:28:47;;;;;;;9.53;2.70;;;;;;;;;;5046383;28;20041;-63
2022/05/12 08:31:13;;;;;;;10.63;3.40;;;;;;;;;;5048697;28;20060;-63
2022/05/12 08:33:39;;;;;;;11.27;2.80;;;;;;;;;;5048510;28;20118;-62
2022/05/12 08:36:05;;;;;;;10.73;3.03;;;;;;;;;;5048095;28;20071;-62
2022/05/12 08:38:34;;;;;;;8.70;2.40;;;;;;;;;;5047312;28;20091;-63
2022/05/12 08:41:02;;;;;;;8.87;2.20;;;;;;;;;;5047856;28;20094;-62
2022/05/12 08:43:35;;;;;;;9.90;1.87;;;;;;;;;;5048781;28;20064;-62
2022/05/12 08:46:09;;;;;;;6.90;2.35;;;;;;;;;;5039782;28;20053;-62
2022/05/12 08:48:39;;;;;;;8.83;2.27;;;;;;;;;;5039685;28;20045;-62
2022/05/12 08:51:06;;;;;;;9.43;2.00;;;;;;;;;;5031727;28;20032;-62
2022/05/12 08:53:38;;;;;;;9.03;2.97;;;;;;;;;;5048688;28;20510;-62
2022/05/12 08:56:04;;;;;;;6.50;2.17;;;;;;;;;;5048681;28;20041;-62
2022/05/12 08:58:37;;;;;;;8.63;2.30;;;;;;;;;;5049054;28;20287;-62
2022/05/12 09:01:15;;;;;;;10.05;2.75;;;;;;;;;;5044134;28;20415;-62
2022/05/12 09:04:00;;;;;;;7.20;2.00;;;;;;;;;;5041006;28;20109;-62
2022/05/12 09:06:32;;;;;;;8.27;2.17;;;;;;;;;;5043561;28;20526;-62
2022/05/12 09:09:10;;;;;;;9.93;2.70;;;;;;;;;;5038504;28;20044;-62
2022/05/12 09:11:52;;;;;;;8.40;2.00;;;;;;;;;;5043753;28;20049;-62
2022/05/12 09:14:25;;;;;;;10.40;1.80;;;;;;;;;;5044191;28;20114;-62
2022/05/12 09:16:52;;;;;;;6.50;1.88;;;;;;;;;;5043324;28;20039;-62
2022/05/12 09:19:19;;;;;;;8.17;2.33;;;;;;;;;;5057743;28;20041;-62
2022/05/12 09:21:45;;;;;;;7.50;1.90;;;;;;;;;;5058876;28;20036;-62
2022/05/12 09:24:11;;;;;;;8.73;2.30;;;;;;;;;;5046383;28;20450;-62
2022/05/12 09:26:46;;;;;;;7.40;1.50;;;;;;;;;;5046678;28;20037;-62
2022/05/12 09:29:15;;;;;;;6.70;1.70;;;;;;;;;;5033264;28;20393;-62
2022/05/12 09:31:42;;;;;;;6.43;1.80;;;;;;;;;;5029323;28;20056;-62
2022/05/12 09:34:14;;;;;;;5.17;1.67;;;;;;;;;;5038723;28;20074;-62
2022/05/12 09:36:40;;;;;;;7.35;2.20;;;;;;;;;;5039011;28;20053;-62
2022/05/12 09:39:06;;;;;;;6.37;2.00;;;;;;;;;;5038014;28;20069;-62
2022/05/12 09:41:43;;;;;;;7.10;1.70;;;;;;;;;;5042688;28;20068;-61
2022/05/12 09:44:21;;;;;;;8.23;1.53;;;;;;;;;;5040477;28;20049;-61
2022/05/12 09:47:09;;;;;;;5.83;2.10;;;;;;;;;;5037462;28;20517;-61
2022/05/12 09:49:38;;;;;;;6.20;1.60;;;;;;;;;;5036549;28;20060;-61
2022/05/12 09:52:23;;;;;;;6.57;1.60;;;;;;;;;;5036101;28;20580;-61
2022/05/12 09:55:07;;;;;;;7.37;1.50;;;;;;;;;;5038238;28;20081;-61
2022/05/12 09:57:35;;;;;;;7.13;1.50;;;;;;;;;;5039563;28;20095;-61
2022/05/12 10:00:03;;;;;;;4.87;1.40;;;;;;;;;;5043793;28;20045;-61
2022/05/12 10:08:04;;;;;;;7.27;1.60;;;;;;;;;;5027920;28;20196;-61
2022/05/12 10:10:30;;;;;;;6.57;1.40;;;;;;;;;;5035552;28;20155;-60
2022/05/12 10:13:02;;;;;;;6.03;1.20;;;;;;;;;;5035811;28;20052;-61
2022/05/12 10:15:32;;;;;;;6.40;2.07;;;;;;;;;;5035848;28;20052;-61
2022/05/12 10:18:04;;;;;;;5.13;1.43;;;;;;;;;;5037012;28;20064;-61
2022/05/12 10:20:33;;;;;;;4.70;1.20;;;;;;;;;;5046616;28;20056;-61
2022/05/12 10:23:04;;;;;;;7.70;1.93;;;;;;;;;;5045024;28;20049;-61
2022/05/12 10:25:37;;;;;;;4.53;1.33;;;;;;;;;;5042425;28;20044;-61
2022/05/12 10:28:07;;;;;;;6.65;1.50;;;;;;;;;;5029462;28;20042;-61
2022/05/12 10:30:39;;;;;;;4.53;1.73;;;;;;;;;;5043496;28;20526;-61
2022/05/12 10:33:11;;;;;;;9.77;1.63;;;;;;;;;;5038438;28;20041;-60
2022/05/12 10:35:53;;;;;;;6.82;2.05;;;;;;;;;;5046008;28;20123;-61
2022/05/12 10:38:37;;;;;;;4.43;1.40;;;;;;;;;;5045053;28;20498;-60
2022/05/12 10:41:16;;;;;;;4.17;1.27;;;;;;;;;;5051568;28;20068;-60
2022/05/12 10:43:48;;;;;;;6.27;1.60;;;;;;;;;;5050997;28;20032;-61
2022/05/12 10:46:21;;;;;;;3.50;1.53;;;;;;;;;;5054470;28;20487;-60
2022/05/12 10:48:53;;;;;;;7.00;1.25;;;;;;;;;;5069567;28;20040;-61
2022/05/12 10:51:27;;;;;;;4.10;1.63;;;;;;;;;;5050924;28;20049;-61
2022/05/12 10:53:53;;;;;;;5.05;1.40;;;;;;;;;;5051077;28;20040;-61
2022/05/12 10:56:34;;;;;;;3.53;1.52;;;;;;;;;;5054193;28;20102;-61
2022/05/12 10:59:17;;;;;;;5.75;1.30;;;;;;;;;;5039702;28;20132;-62
2022/05/12 11:01:46;;;;;;;3.97;1.40;;;;;;;;;;5042614;28;20495;-61
2022/05/12 11:04:14;;;;;;;6.25;1.50;;;;;;;;;;5041057;28;20425;-61
2022/05/12 11:06:42;;;;;;;5.53;1.58;;;;;;;;;;5041237;28;20121;-61
2022/05/12 11:09:18;;;;;;;4.95;1.88;;;;;;;;;;5050669;28;20136;-61
2022/05/12 11:11:46;;;;;;;5.00;1.25;;;;;;;;;;5047256;28;20059;-61
2022/05/12 11:14:18;;;;;;;4.85;1.45;;;;;;;;;;5031131;28;20048;-61
2022/05/12 11:16:44;;;;;;;5.10;1.13;;;;;;;;;;5038420;28;20053;-61
2022/05/12 11:19:15;;;;;;;5.57;1.75;;;;;;;;;;5050334;28;20768;-61
2022/05/12 11:21:46;;;;;;;5.38;1.35;;;;;;;;;;5050776;28;20056;-61
2022/05/12 11:24:12;;;;;;;4.15;1.38;;;;;;;;;;5048346;28;20037;-61
2022/05/12 11:26:55;;;;;;;4.35;1.50;;;;;;;;;;5031402;28;20050;-61
2022/05/12 11:32:29;;;;;;;6.78;1.15;;;;;;;;;;5045520;28;20048;-61
2022/05/12 11:34:59;;;;;;;3.70;1.20;;;;;;;;;;5039965;28;20048;-61
2022/05/12 11:37:34;;;;;;;3.75;1.58;;;;;;;;;;5043211;28;20429;-61
2022/05/12 11:40:02;;;;;;;5.60;1.42;;;;;;;;;;5063024;28;20052;-61
2022/05/12 11:44:23;;;;;;;5.75;1.17;;;;;;;;;;5052204;28;20052;-61
2022/05/12 11:45:47;;;;;;;4.60;1.58;;;;;;;;;;5040831;28;20041;-62
2022/05/12 11:48:16;;;;;;;6.07;2.00;;;;;;;;;;5028680;28;20472;-62
2022/05/12 11:50:51;;;;;;;5.57;1.27;;;;;;;;;;5049646;28;20060;-61
2022/05/12 11:53:23;;;;;;;4.75;1.27;;;;;;;;;;5058083;28;20399;-61
2022/05/12 11:56:25;;;;;;;5.23;1.50;;;;;;;;;;5066506;28;20039;-61
2022/05/12 11:59:11;;;;;;;3.87;1.00;;;;;;;;;;4982947;28;20046;-61
2022/05/12 12:01:37;;;;;;;5.80;1.42;;;;;;;;;;5054518;28;20056;-61
2022/05/12 12:04:04;;;;;;;6.80;1.23;;;;;;;;;;5067583;28;20102;-62
2022/05/12 12:06:44;;;;;;;4.10;1.20;;;;;;;;;;5065096;28;20045;-61
2022/05/12 12:09:25;;;;;;;3.50;1.10;;;;;;;;;;5049346;28;20497;-62
2022/05/12 12:11:52;;;;;;;4.57;1.15;;;;;;;;;;5049760;28;20033;-62
2022/05/12 12:14:37;;;;;;;4.13;1.45;;;;;;;;;;5069523;28;20418;-62
2022/05/12 12:17:05;;;;;;;2.40;0.77;;;;;;;;;;5067743;28;20102;-62
2022/05/12 12:19:49;;;;;;;2.88;1.10;;;;;;;;;;5068287;28;20418;-62
2022/05/12 12:22:19;;;;;;;3.67;1.20;;;;;;;;;;5069295;28;20052;-61
2022/05/12 12:25:20;;;;;;;2.78;0.90;;;;;;;;;;5061257;28;20522;-61
2022/05/12 12:27:55;;;;;;;3.60;1.15;;;;;;;;;;4987596;28;20046;-62
2022/05/12 12:30:39;;;;;;;4.45;1.33;;;;;;;;;;5040248;28;20147;-62
2022/05/12 12:33:11;;;;;;;5.70;1.20;;;;;;;;;;5049061;28;20071;-62
2022/05/12 12:36:00;;;;;;;2.83;1.20;;;;;;;;;;5047368;28;20114;-62
2022/05/12 12:38:44;;;;;;;3.80;1.30;;;;;;;;;;5048866;28;20110;-62
2022/05/12 12:41:15;;;;;;;4.30;1.30;;;;;;;;;;5048430;28;20779;-62
2022/05/12 12:43:42;;;;;;;4.30;1.38;;;;;;;;;;5049154;28;20068;-62
2022/05/12 12:46:13;;;;;;;2.88;0.93;;;;;;;;;;5049110;28;20085;-62
2022/05/12 12:48:44;;;;;;;3.40;1.15;;;;;;;;;;5048636;28;20094;-62
2022/05/12 12:51:10;;;;;;;4.55;1.05;;;;;;;;;;5048619;28;20076;-62
2022/05/12 12:56:32;;;;;;;4.95;1.20;;;;;;;;;;5048676;28;20052;-61
2022/05/12 12:59:13;;;;;;;5.20;1.50;;;;;;;;;;5048461;28;20116;-62
2022/05/12 13:01:52;;;;;;;5.55;1.10;;;;;;;;;;5048244;28;20060;-61
2022/05/12 13:04:23;;;;;;;6.07;1.60;;;;;;;;;;5048610;28;20467;-62
2022/05/12 13:07:00;;;;;;;3.75;1.20;;;;;;;;;;5048166;28;20048;-62
2022/05/12 13:09:31;;;;;;;4.43;1.48;;;;;;;;;;5046805;28;20064;-62
2022/05/12 13:12:09;;;;;;;3.80;1.25;;;;;;;;;;5048235;28;20052;-62
2022/05/12 13:14:36;;;;;;;3.72;1.30;;;;;;;;;;5048362;28;20071;-62
2022/05/12 13:17:02;;;;;;;5.13;1.58;;;;;;;;;;5048115;28;20064;-62
2022/05/12 13:19:30;;;;;;;20.35;2.20;;;;;;;;;;5048302;28;20041;-62
2022/05/12 13:21:56;;;;;;;3.30;1.05;;;;;;;;;;5047898;28;20206;-62
2022/05/12 13:24:24;;;;;;;7.35;1.42;;;;;;;;;;5048515;28;20408;-63
2022/05/12 13:26:52;;;;;;;5.97;1.90;;;;;;;;;;5048154;28;20127;-61
2022/05/12 13:29:30;;;;;;;4.10;2.10;;;;;;;;;;5046716;28;20059;-62
2022/05/12 13:32:02;;;;;;;4.43;1.45;;;;;;;;;;5047645;28;20151;-62
2022/05/12 13:34:31;;;;;;;4.63;2.00;;;;;;;;;;5047998;28;20087;-62
2022/05/12 13:37:12;;;;;;;3.15;1.38;;;;;;;;;;5047884;28;20415;-62
2022/05/12 13:40:00;;;;;;;4.00;1.17;;;;;;;;;;5047801;28;20128;-62
2022/05/12 13:42:29;;;;;;;6.43;2.40;;;;;;;;;;5047742;28;20083;-62
2022/05/12 13:44:57;;;;;;;4.57;1.45;;;;;;;;;;5047719;28;20187;-62
2022/05/12 13:47:29;;;;;;;4.72;1.30;;;;;;;;;;5047602;28;20049;-62
2022/05/12 13:49:56;;;;;;;6.30;1.52;;;;;;;;;;5047757;28;20051;-61
2022/05/12 13:52:24;;;;;;;4.63;1.27;;;;;;;;;;5047804;28;20049;-61
2022/05/12 13:54:55;;;;;;;6.13;1.17;;;;;;;;;;5047758;28;20052;-62
2022/05/12 13:57:29;;;;;;;2.60;1.00;;;;;;;;;;5047863;28;20106;-61
2022/05/12 13:59:55;;;;;;;4.95;1.30;;;;;;;;;;5047594;28;20041;-62
2022/05/12 14:02:30;;;;;;;5.97;1.42;;;;;;;;;;5047300;28;20049;-62
2022/05/12 14:05:11;;;;;;;4.20;1.38;;;;;;;;;;5046375;28;20056;-62
2022/05/12 14:07:37;;;;;;;4.68;1.30;;;;;;;;;;5047894;28;20107;-62
2022/05/12 14:10:14;;;;;;;5.57;1.48;;;;;;;;;;5047498;28;20525;-62
2022/05/12 14:19:13;;;;;;;5.65;1.70;;;;;;;;;;5062806;28;20044;-62
2022/05/12 14:20:56;;;;;;;5.65;1.50;;;;;;;;;;5051847;28;20144;-62
2022/05/12 14:23:22;;;;;;;5.28;1.67;;;;;;;;;;5049879;28;20857;-62
2022/05/12 14:25:48;;;;;;;4.47;1.15;;;;;;;;;;5051528;28;20468;-62
2022/05/12 14:28:14;;;;;;;4.55;1.08;;;;;;;;;;5045205;28;20046;-62
2022/05/12 14:30:40;;;;;;;4.20;1.20;;;;;;;;;;5050056;28;20183;-61
2022/05/12 14:33:07;;;;;;;5.25;1.50;;;;;;;;;;5049629;28;20455;-62
2022/05/12 14:35:33;;;;;;;6.57;1.77;;;;;;;;;;5042391;28;20045;-62
2022/05/12 14:38:01;;;;;;;5.03;1.83;;;;;;;;;;5049780;28;20089;-62
2022/05/12 14:40:27;;;;;;;4.35;1.40;;;;;;;;;;5061224;28;20136;-61
2022/05/12 14:42:54;;;;;;;2.95;1.38;;;;;;;;;;5050330;28;20830;-61
2022/05/12 14:45:20;;;;;;;2.53;1.00;;;;;;;;;;5050890;28;20041;-61
2022/05/12 14:47:47;;;;;;;5.03;1.30;;;;;;;;;;5049119;28;20087;-62
2022/05/12 14:50:16;;;;;;;5.28;0.93;;;;;;;;;;5045680;28;20062;-62
2022/05/12 14:52:42;;;;;;;5.50;2.15;;;;;;;;;;5046860;28;20103;-62
2022/05/12 14:55:09;;;;;;;5.65;1.25;;;;;;;;;;5032255;28;20092;-62
2022/05/12 14:57:35;;;;;;;2.55;1.10;;;;;;;;;;5059154;28;20072;-62
2022/05/12 15:00:01;;;;;;;3.88;1.20;;;;;;;;;;5040696;28;20559;-62
2022/05/12 15:02:35;;;;;;;5.03;1.63;;;;;;;;;;5065604;28;20062;-62
2022/05/12 15:05:01;;;;;;;7.65;1.55;;;;;;;;;;5035293;28;20530;-62
2022/05/12 15:07:29;;;;;;;3.50;1.02;;;;;;;;;;5068662;28;20036;-62
2022/05/12 15:09:55;;;;;;;6.68;1.95;;;;;;;;;;5056321;28;20083;-61
2022/05/12 15:12:21;;;;;;;3.45;1.17;;;;;;;;;;5045671;28;20041;-62
2022/05/12 15:14:47;;;;;;;3.78;1.10;;;;;;;;;;5042367;28;20044;-62